Terminal Aerodrome Forecast
Issued by NWS

Home | Current Version | Previous Version | Text Only | Print | Product List | Glossary On
Versions: 1 2 3 4 5 6 7 8 9 10 11 12 13 14 15 16 17 18 19
664
FTUS42 KTBW 251731
TAFPGD
TAF
KPGD 251731Z 2518/2618 28012G20KT P6SM SCT025
     FM252100 29010KT P6SM SCT025
     FM260500 33005KT P6SM SCT150
     FM260800 02007KT 4SM BR SCT005
     FM261300 05010KT P6SM SCT035=

USA.gov is the U.S. government's official web portal to all federal, state and local government web resources and services.